sensor_id;sensor_type;location;lat;lon;timestamp;P1;durP1;ratioP1;P2;durP2;ratioP2
46607;SDS011;32330;51.936;7.184;2023-03-21T04:50:04;16.60;;;9.35;;
46607;SDS011;32330;51.936;7.184;2023-03-21T04:52:32;19.05;;;9.45;;
46607;SDS011;32330;51.936;7.184;2023-03-21T04:54:59;16.38;;;9.10;;
46607;SDS011;32330;51.936;7.184;2023-03-21T04:57:26;21.83;;;10.07;;
46607;SDS011;32330;51.936;7.184;2023-03-21T04:59:55;18.20;;;10.10;;
46607;SDS011;32330;51.936;7.184;2023-03-21T05:02:22;21.15;;;10.48;;
46607;SDS011;32330;51.936;7.184;2023-03-21T05:04:49;17.35;;;9.77;;
46607;SDS011;32330;51.936;7.184;2023-03-21T05:07:18;15.00;;;9.35;;
46607;SDS011;32330;51.936;7.184;2023-03-21T05:09:51;18.80;;;8.50;;
46607;SDS011;32330;51.936;7.184;2023-03-21T05:12:18;21.65;;;10.68;;
46607;SDS011;32330;51.936;7.184;2023-03-21T05:14:45;15.38;;;9.55;;
46607;SDS011;32330;51.936;7.184;2023-03-21T05:17:13;17.95;;;13.63;;
46607;SDS011;32330;51.936;7.184;2023-03-21T05:19:48;16.45;;;11.27;;
46607;SDS011;32330;51.936;7.184;2023-03-21T05:22:18;18.85;;;11.52;;
46607;SDS011;32330;51.936;7.184;2023-03-21T05:24:46;20.08;;;11.68;;
46607;SDS011;32330;51.936;7.184;2023-03-21T05:27:25;20.38;;;12.40;;
46607;SDS011;32330;51.936;7.184;2023-03-21T05:30:06;17.95;;;11.73;;
46607;SDS011;32330;51.936;7.184;2023-03-21T05:32:35;18.95;;;11.15;;
46607;SDS011;32330;51.936;7.184;2023-03-21T05:35:03;17.80;;;12.93;;
46607;SDS011;32330;51.936;7.184;2023-03-21T05:37:32;24.38;;;12.43;;
46607;SDS011;32330;51.936;7.184;2023-03-21T05:39:59;19.85;;;12.77;;
46607;SDS011;32330;51.936;7.184;2023-03-21T05:42:31;22.80;;;14.73;;
46607;SDS011;32330;51.936;7.184;2023-03-21T05:44:59;17.83;;;13.10;;
46607;SDS011;32330;51.936;7.184;2023-03-21T05:47:31;23.33;;;14.15;;
46607;SDS011;32330;51.936;7.184;2023-03-21T05:49:59;19.75;;;13.05;;
46607;SDS011;32330;51.936;7.184;2023-03-21T05:52:27;24.25;;;14.30;;
46607;SDS011;32330;51.936;7.184;2023-03-21T05:54:56;24.55;;;15.20;;
46607;SDS011;32330;51.936;7.184;2023-03-21T05:57:24;24.77;;;14.30;;
46607;SDS011;32330;51.936;7.184;2023-03-21T06:00:02;22.58;;;16.15;;
46607;SDS011;32330;51.936;7.184;2023-03-21T06:02:40;21.67;;;13.45;;
46607;SDS011;32330;51.936;7.184;2023-03-21T06:05:23;26.00;;;14.98;;
46607;SDS011;32330;51.936;7.184;2023-03-21T06:07:50;22.40;;;13.85;;
46607;SDS011;32330;51.936;7.184;2023-03-21T06:10:18;21.10;;;13.60;;
46607;SDS011;32330;51.936;7.184;2023-03-21T06:12:47;27.15;;;15.18;;
46607;SDS011;32330;51.936;7.184;2023-03-21T06:15:26;26.65;;;14.45;;
46607;SDS011;32330;51.936;7.184;2023-03-21T06:18:00;20.70;;;13.57;;
46607;SDS011;32330;51.936;7.184;2023-03-21T06:20:27;23.95;;;14.30;;
46607;SDS011;32330;51.936;7.184;2023-03-21T06:23:01;21.85;;;13.23;;
46607;SDS011;32330;51.936;7.184;2023-03-21T06:25:30;22.38;;;14.75;;
46607;SDS011;32330;51.936;7.184;2023-03-21T06:28:06;24.92;;;14.73;;
46607;SDS011;32330;51.936;7.184;2023-03-21T06:30:38;24.15;;;14.43;;
46607;SDS011;32330;51.936;7.184;2023-03-21T06:33:24;22.35;;;13.40;;
46607;SDS011;32330;51.936;7.184;2023-03-21T06:35:57;22.25;;;13.10;;
46607;SDS011;32330;51.936;7.184;2023-03-21T06:38:30;25.25;;;13.88;;
46607;SDS011;32330;51.936;7.184;2023-03-21T06:41:05;24.30;;;14.63;;
46607;SDS011;32330;51.936;7.184;2023-03-21T06:44:02;19.48;;;14.23;;
46607;SDS011;32330;51.936;7.184;2023-03-21T06:46:35;22.50;;;14.98;;
46607;SDS011;32330;51.936;7.184;2023-03-21T06:49:02;24.17;;;14.70;;
46607;SDS011;32330;51.936;7.184;2023-03-21T06:51:29;24.63;;;15.13;;
46607;SDS011;32330;51.936;7.184;2023-03-21T06:54:18;25.23;;;13.45;;
46607;SDS011;32330;51.936;7.184;2023-03-21T06:56:55;21.75;;;13.75;;
46607;SDS011;32330;51.936;7.184;2023-03-21T06:59:28;22.25;;;13.35;;
46607;SDS011;32330;51.936;7.184;2023-03-21T07:02:01;23.30;;;13.02;;
46607;SDS011;32330;51.936;7.184;2023-03-21T07:04:30;20.85;;;11.98;;
46607;SDS011;32330;51.936;7.184;2023-03-21T07:06:58;20.75;;;13.27;;
46607;SDS011;32330;51.936;7.184;2023-03-21T07:09:26;20.10;;;12.95;;
46607;SDS011;32330;51.936;7.184;2023-03-21T07:11:57;21.83;;;11.18;;
46607;SDS011;32330;51.936;7.184;2023-03-21T07:14:33;21.05;;;11.63;;
46607;SDS011;32330;51.936;7.184;2023-03-21T07:17:00;19.23;;;12.07;;
46607;SDS011;32330;51.936;7.184;2023-03-21T07:19:28;17.67;;;11.90;;
46607;SDS011;32330;51.936;7.184;2023-03-21T07:21:55;17.30;;;11.07;;
46607;SDS011;32330;51.936;7.184;2023-03-21T07:24:22;19.00;;;11.25;;
46607;SDS011;32330;51.936;7.184;2023-03-21T07:26:49;19.83;;;11.70;;
46607;SDS011;32330;51.936;7.184;2023-03-21T07:29:17;24.05;;;12.00;;
46607;SDS011;32330;51.936;7.184;2023-03-21T07:31:45;19.02;;;11.40;;
46607;SDS011;32330;51.936;7.184;2023-03-21T07:34:12;19.10;;;12.10;;
46607;SDS011;32330;51.936;7.184;2023-03-21T07:36:40;17.45;;;11.27;;
46607;SDS011;32330;51.936;7.184;2023-03-21T07:39:07;22.80;;;12.18;;
46607;SDS011;32330;51.936;7.184;2023-03-21T07:41:43;21.13;;;11.75;;
46607;SDS011;32330;51.936;7.184;2023-03-21T07:44:24;18.83;;;10.63;;
46607;SDS011;32330;51.936;7.184;2023-03-21T07:47:00;20.67;;;12.38;;
46607;SDS011;32330;51.936;7.184;2023-03-21T07:49:27;21.10;;;13.18;;
46607;SDS011;32330;51.936;7.184;2023-03-21T07:51:55;26.90;;;20.95;;
46607;SDS011;32330;51.936;7.184;2023-03-21T07:54:23;25.05;;;16.20;;
46607;SDS011;32330;51.936;7.184;2023-03-21T07:56:52;19.42;;;14.15;;
46607;SDS011;32330;51.936;7.184;2023-03-21T07:59:19;20.92;;;13.35;;
46607;SDS011;32330;51.936;7.184;2023-03-21T08:01:48;21.55;;;13.48;;
46607;SDS011;32330;51.936;7.184;2023-03-21T08:04:15;26.00;;;17.92;;
46607;SDS011;32330;51.936;7.184;2023-03-21T08:06:42;22.77;;;18.65;;
46607;SDS011;32330;51.936;7.184;2023-03-21T08:09:09;24.92;;;16.17;;
46607;SDS011;32330;51.936;7.184;2023-03-21T08:11:36;23.42;;;13.23;;
46607;SDS011;32330;51.936;7.184;2023-03-21T08:14:02;25.58;;;18.17;;
46607;SDS011;32330;51.936;7.184;2023-03-21T08:16:30;28.00;;;20.00;;
46607;SDS011;32330;51.936;7.184;2023-03-21T08:18:58;31.52;;;24.77;;
46607;SDS011;32330;51.936;7.184;2023-03-21T08:21:25;24.85;;;20.27;;
46607;SDS011;32330;51.936;7.184;2023-03-21T08:23:53;22.67;;;17.38;;
46607;SDS011;32330;51.936;7.184;2023-03-21T08:26:19;24.10;;;13.80;;
46607;SDS011;32330;51.936;7.184;2023-03-21T08:28:49;21.02;;;11.57;;
46607;SDS011;32330;51.936;7.184;2023-03-21T08:31:16;17.40;;;10.48;;
46607;SDS011;32330;51.936;7.184;2023-03-21T08:33:45;18.02;;;10.57;;
46607;SDS011;32330;51.936;7.184;2023-03-21T08:36:16;22.77;;;11.45;;
46607;SDS011;32330;51.936;7.184;2023-03-21T08:38:43;21.50;;;9.63;;
46607;SDS011;32330;51.936;7.184;2023-03-21T08:41:12;17.70;;;10.52;;
46607;SDS011;32330;51.936;7.184;2023-03-21T08:43:39;22.63;;;10.73;;
46607;SDS011;32330;51.936;7.184;2023-03-21T08:46:06;17.90;;;9.98;;
46607;SDS011;32330;51.936;7.184;2023-03-21T08:48:33;21.08;;;9.90;;
46607;SDS011;32330;51.936;7.184;2023-03-21T08:51:03;15.20;;;9.18;;
46607;SDS011;32330;51.936;7.184;2023-03-21T08:53:32;14.80;;;9.60;;
46607;SDS011;32330;51.936;7.184;2023-03-21T08:55:59;18.77;;;10.27;;
46607;SDS011;32330;51.936;7.184;2023-03-21T08:58:26;16.98;;;9.02;;
46607;SDS011;32330;51.936;7.184;2023-03-21T09:00:53;17.27;;;9.45;;
46607;SDS011;32330;51.936;7.184;2023-03-21T09:03:20;15.60;;;8.65;;
46607;SDS011;32330;51.936;7.184;2023-03-21T09:05:47;18.25;;;9.70;;
46607;SDS011;32330;51.936;7.184;2023-03-21T09:08:14;12.98;;;9.27;;
46607;SDS011;32330;51.936;7.184;2023-03-21T09:10:43;15.95;;;8.75;;
46607;SDS011;32330;51.936;7.184;2023-03-21T09:13:09;15.27;;;9.20;;
46607;SDS011;32330;51.936;7.184;2023-03-21T09:15:36;15.82;;;9.57;;
46607;SDS011;32330;51.936;7.184;2023-03-21T09:18:04;16.92;;;9.40;;
46607;SDS011;32330;51.936;7.184;2023-03-21T09:20:39;19.42;;;8.93;;
46607;SDS011;32330;51.936;7.184;2023-03-21T09:23:07;16.67;;;9.40;;
46607;SDS011;32330;51.936;7.184;2023-03-21T09:25:34;13.60;;;8.02;;
46607;SDS011;32330;51.936;7.184;2023-03-21T09:28:04;12.15;;;8.90;;
46607;SDS011;32330;51.936;7.184;2023-03-21T09:30:32;13.23;;;8.45;;
46607;SDS011;32330;51.936;7.184;2023-03-21T09:33:02;17.60;;;9.35;;
46607;SDS011;32330;51.936;7.184;2023-03-21T09:35:33;16.88;;;8.95;;
46607;SDS011;32330;51.936;7.184;2023-03-21T09:38:00;17.58;;;8.40;;
46607;SDS011;32330;51.936;7.184;2023-03-21T09:40:30;22.15;;;8.70;;
46607;SDS011;32330;51.936;7.184;2023-03-21T09:43:21;20.27;;;9.13;;
46607;SDS011;32330;51.936;7.184;2023-03-21T09:46:02;16.75;;;8.70;;
46607;SDS011;32330;51.936;7.184;2023-03-21T09:48:36;13.77;;;8.35;;
46607;SDS011;32330;51.936;7.184;2023-03-21T09:51:07;16.42;;;8.50;;
46607;SDS011;32330;51.936;7.184;2023-03-21T09:53:40;17.00;;;8.68;;
46607;SDS011;32330;51.936;7.184;2023-03-21T09:56:10;14.68;;;8.10;;
46607;SDS011;32330;51.936;7.184;2023-03-21T09:58:40;14.18;;;7.30;;
46607;SDS011;32330;51.936;7.184;2023-03-21T10:01:11;15.05;;;8.60;;
46607;SDS011;32330;51.936;7.184;2023-03-21T10:03:46;16.05;;;9.07;;
46607;SDS011;32330;51.936;7.184;2023-03-21T10:06:14;20.95;;;8.82;;
46607;SDS011;32330;51.936;7.184;2023-03-21T10:08:44;16.08;;;8.70;;
46607;SDS011;32330;51.936;7.184;2023-03-21T10:11:14;18.38;;;9.82;;
46607;SDS011;32330;51.936;7.184;2023-03-21T10:13:48;13.60;;;7.93;;
46607;SDS011;32330;51.936;7.184;2023-03-21T10:16:18;18.45;;;8.70;;
46607;SDS011;32330;51.936;7.184;2023-03-21T10:18:48;17.03;;;8.90;;
46607;SDS011;32330;51.936;7.184;2023-03-21T10:21:19;20.23;;;8.43;;
46607;SDS011;32330;51.936;7.184;2023-03-21T10:23:48;17.67;;;8.60;;
46607;SDS011;32330;51.936;7.184;2023-03-21T10:26:17;16.15;;;8.93;;
46607;SDS011;32330;51.936;7.184;2023-03-21T10:28:45;14.05;;;8.07;;
46607;SDS011;32330;51.936;7.184;2023-03-21T10:31:15;12.10;;;8.80;;
46607;SDS011;32330;51.936;7.184;2023-03-21T10:33:45;16.25;;;8.48;;
46607;SDS011;32330;51.936;7.184;2023-03-21T10:36:14;15.80;;;7.45;;
46607;SDS011;32330;51.936;7.184;2023-03-21T10:38:45;17.95;;;9.40;;
46607;SDS011;32330;51.936;7.184;2023-03-21T10:41:14;12.73;;;9.00;;
46607;SDS011;32330;51.936;7.184;2023-03-21T10:43:41;15.88;;;9.45;;
46607;SDS011;32330;51.936;7.184;2023-03-21T10:46:12;15.05;;;8.55;;
46607;SDS011;32330;51.936;7.184;2023-03-21T10:48:43;13.05;;;9.30;;
46607;SDS011;32330;51.936;7.184;2023-03-21T10:51:18;17.35;;;9.88;;
46607;SDS011;32330;51.936;7.184;2023-03-21T10:53:48;19.75;;;10.50;;
46607;SDS011;32330;51.936;7.184;2023-03-21T10:56:18;15.18;;;10.65;;
46607;SDS011;32330;51.936;7.184;2023-03-21T10:58:50;16.20;;;11.52;;
46607;SDS011;32330;51.936;7.184;2023-03-21T11:01:23;15.02;;;11.23;;
46607;SDS011;32330;51.936;7.184;2023-03-21T11:03:54;16.00;;;12.50;;
46607;SDS011;32330;51.936;7.184;2023-03-21T11:06:29;21.75;;;13.10;;
46607;SDS011;32330;51.936;7.184;2023-03-21T11:08:59;17.85;;;13.30;;
46607;SDS011;32330;51.936;7.184;2023-03-21T11:11:32;19.38;;;13.30;;
46607;SDS011;32330;51.936;7.184;2023-03-21T11:14:01;16.70;;;12.90;;
46607;SDS011;32330;51.936;7.184;2023-03-21T11:16:36;20.07;;;13.30;;
46607;SDS011;32330;51.936;7.184;2023-03-21T11:19:11;21.00;;;13.57;;
46607;SDS011;32330;51.936;7.184;2023-03-21T11:21:39;17.35;;;12.35;;
46607;SDS011;32330;51.936;7.184;2023-03-21T11:24:09;14.23;;;12.70;;
46607;SDS011;32330;51.936;7.184;2023-03-21T11:26:39;21.83;;;11.32;;
46607;SDS011;32330;51.936;7.184;2023-03-21T11:29:11;16.67;;;11.93;;
46607;SDS011;32330;51.936;7.184;2023-03-21T11:31:50;14.05;;;10.35;;
46607;SDS011;32330;51.936;7.184;2023-03-21T11:34:23;13.65;;;9.52;;
46607;SDS011;32330;51.936;7.184;2023-03-21T11:36:52;13.45;;;8.48;;
46607;SDS011;32330;51.936;7.184;2023-03-21T11:42:26;11.48;;;7.70;;
46607;SDS011;32330;51.936;7.184;2023-03-21T11:45:03;15.48;;;8.18;;
46607;SDS011;32330;51.936;7.184;2023-03-21T11:47:37;19.13;;;9.13;;
46607;SDS011;32330;51.936;7.184;2023-03-21T11:50:12;15.90;;;8.85;;
46607;SDS011;32330;51.936;7.184;2023-03-21T11:52:42;16.25;;;9.07;;
46607;SDS011;32330;51.936;7.184;2023-03-21T11:55:29;13.60;;;9.65;;
46607;SDS011;32330;51.936;7.184;2023-03-21T11:58:03;15.23;;;10.18;;
46607;SDS011;32330;51.936;7.184;2023-03-21T12:06:07;13.98;;;9.55;;
46607;SDS011;32330;51.936;7.184;2023-03-21T12:08:43;12.35;;;9.20;;
46607;SDS011;32330;51.936;7.184;2023-03-21T12:11:22;12.95;;;8.85;;
46607;SDS011;32330;51.936;7.184;2023-03-21T12:14:01;13.82;;;8.55;;
46607;SDS011;32330;51.936;7.184;2023-03-21T12:16:40;10.68;;;7.90;;
46607;SDS011;32330;51.936;7.184;2023-03-21T12:19:18;11.05;;;8.15;;
46607;SDS011;32330;51.936;7.184;2023-03-21T12:21:59;10.97;;;7.10;;
46607;SDS011;32330;51.936;7.184;2023-03-21T12:24:32;11.63;;;6.22;;
46607;SDS011;32330;51.936;7.184;2023-03-21T12:27:07;8.27;;;6.50;;
46607;SDS011;32330;51.936;7.184;2023-03-21T12:29:47;9.27;;;6.07;;
46607;SDS011;32330;51.936;7.184;2023-03-21T12:32:25;8.73;;;5.57;;
46607;SDS011;32330;51.936;7.184;2023-03-21T12:35:08;9.50;;;6.13;;
46607;SDS011;32330;51.936;7.184;2023-03-21T12:37:49;10.18;;;5.50;;
46607;SDS011;32330;51.936;7.184;2023-03-21T12:40:25;8.45;;;5.68;;
46607;SDS011;32330;51.936;7.184;2023-03-21T12:45:57;8.38;;;5.00;;
46607;SDS011;32330;51.936;7.184;2023-03-21T12:48:29;10.55;;;5.82;;
46607;SDS011;32330;51.936;7.184;2023-03-21T12:51:04;8.77;;;5.75;;
46607;SDS011;32330;51.936;7.184;2023-03-21T12:53:41;8.80;;;5.43;;
46607;SDS011;32330;51.936;7.184;2023-03-21T12:56:17;9.98;;;5.45;;
46607;SDS011;32330;51.936;7.184;2023-03-21T12:58:49;7.82;;;5.15;;
46607;SDS011;32330;51.936;7.184;2023-03-21T13:01:20;10.40;;;6.97;;
46607;SDS011;32330;51.936;7.184;2023-03-21T13:03:49;10.38;;;5.93;;
46607;SDS011;32330;51.936;7.184;2023-03-21T13:06:22;11.20;;;7.43;;
46607;SDS011;32330;51.936;7.184;2023-03-21T13:08:53;9.48;;;7.65;;
46607;SDS011;32330;51.936;7.184;2023-03-21T13:11:26;14.80;;;8.57;;
46607;SDS011;32330;51.936;7.184;2023-03-21T13:13:55;12.73;;;8.18;;
46607;SDS011;32330;51.936;7.184;2023-03-21T13:16:26;9.05;;;6.50;;
46607;SDS011;32330;51.936;7.184;2023-03-21T13:19:02;8.85;;;5.47;;
46607;SDS011;32330;51.936;7.184;2023-03-21T13:21:40;11.18;;;6.57;;
46607;SDS011;32330;51.936;7.184;2023-03-21T13:24:22;10.77;;;4.88;;
46607;SDS011;32330;51.936;7.184;2023-03-21T13:26:54;9.95;;;5.45;;
46607;SDS011;32330;51.936;7.184;2023-03-21T13:29:30;10.55;;;5.82;;
46607;SDS011;32330;51.936;7.184;2023-03-21T13:32:04;16.00;;;8.65;;
46607;SDS011;32330;51.936;7.184;2023-03-21T13:34:36;25.83;;;23.05;;
46607;SDS011;32330;51.936;7.184;2023-03-21T13:37:05;11.37;;;8.53;;
46607;SDS011;32330;51.936;7.184;2023-03-21T13:39:43;8.18;;;6.05;;
46607;SDS011;32330;51.936;7.184;2023-03-21T13:42:16;12.18;;;7.57;;
46607;SDS011;32330;51.936;7.184;2023-03-21T13:44:48;10.18;;;5.60;;
46607;SDS011;32330;51.936;7.184;2023-03-21T13:47:22;10.23;;;4.90;;
46607;SDS011;32330;51.936;7.184;2023-03-21T13:53:17;7.93;;;4.57;;
46607;SDS011;32330;51.936;7.184;2023-03-21T13:56:05;11.63;;;4.25;;
46607;SDS011;32330;51.936;7.184;2023-03-21T13:58:36;7.13;;;3.72;;
46607;SDS011;32330;51.936;7.184;2023-03-21T14:01:13;8.00;;;4.45;;
46607;SDS011;32330;51.936;7.184;2023-03-21T14:03:47;11.57;;;3.80;;
46607;SDS011;32330;51.936;7.184;2023-03-21T14:06:15;7.50;;;3.80;;
46607;SDS011;32330;51.936;7.184;2023-03-21T14:08:44;6.53;;;3.60;;
46607;SDS011;32330;51.936;7.184;2023-03-21T14:11:16;6.38;;;3.40;;
46607;SDS011;32330;51.936;7.184;2023-03-21T14:13:45;5.40;;;2.83;;
46607;SDS011;32330;51.936;7.184;2023-03-21T14:16:13;6.38;;;3.80;;
46607;SDS011;32330;51.936;7.184;2023-03-21T14:18:43;5.88;;;3.60;;
46607;SDS011;32330;51.936;7.184;2023-03-21T14:21:13;7.60;;;4.10;;
46607;SDS011;32330;51.936;7.184;2023-03-21T14:23:42;7.70;;;3.65;;
46607;SDS011;32330;51.936;7.184;2023-03-21T14:26:10;6.93;;;4.15;;
46607;SDS011;32330;51.936;7.184;2023-03-21T14:28:41;7.18;;;3.78;;
46607;SDS011;32330;51.936;7.184;2023-03-21T14:31:13;6.80;;;3.88;;
46607;SDS011;32330;51.936;7.184;2023-03-21T14:33:44;7.05;;;3.60;;
46607;SDS011;32330;51.936;7.184;2023-03-21T14:36:15;5.68;;;3.22;;
46607;SDS011;32330;51.936;7.184;2023-03-21T14:38:54;6.55;;;3.25;;
46607;SDS011;32330;51.936;7.184;2023-03-21T14:41:28;7.43;;;3.90;;
46607;SDS011;32330;51.936;7.184;2023-03-21T14:44:02;6.47;;;3.75;;
46607;SDS011;32330;51.936;7.184;2023-03-21T14:46:36;6.22;;;3.38;;
46607;SDS011;32330;51.936;7.184;2023-03-21T14:49:09;6.20;;;3.58;;
46607;SDS011;32330;51.936;7.184;2023-03-21T14:51:38;5.75;;;3.40;;
46607;SDS011;32330;51.936;7.184;2023-03-21T14:54:07;9.80;;;4.47;;
46607;SDS011;32330;51.936;7.184;2023-03-21T14:59:08;6.22;;;3.60;;
46607;SDS011;32330;51.936;7.184;2023-03-21T15:01:39;6.45;;;4.00;;
46607;SDS011;32330;51.936;7.184;2023-03-21T15:04:06;7.45;;;4.28;;
46607;SDS011;32330;51.936;7.184;2023-03-21T15:06:33;8.18;;;5.25;;
46607;SDS011;32330;51.936;7.184;2023-03-21T15:09:15;8.20;;;4.75;;
46607;SDS011;32330;51.936;7.184;2023-03-21T15:11:47;6.60;;;5.43;;
46607;SDS011;32330;51.936;7.184;2023-03-21T15:14:18;8.77;;;5.55;;
46607;SDS011;32330;51.936;7.184;2023-03-21T15:16:50;7.97;;;5.55;;
46607;SDS011;32330;51.936;7.184;2023-03-21T15:19:18;7.80;;;4.55;;
46607;SDS011;32330;51.936;7.184;2023-03-21T15:21:52;7.13;;;5.07;;
46607;SDS011;32330;51.936;7.184;2023-03-21T15:24:21;7.95;;;5.70;;
46607;SDS011;32330;51.936;7.184;2023-03-21T15:26:54;7.55;;;4.53;;
46607;SDS011;32330;51.936;7.184;2023-03-21T15:29:26;10.02;;;5.05;;
46607;SDS011;32330;51.936;7.184;2023-03-21T15:31:53;5.95;;;4.25;;
46607;SDS011;32330;51.936;7.184;2023-03-21T15:34:21;6.70;;;5.30;;
46607;SDS011;32330;51.936;7.184;2023-03-21T15:36:54;7.22;;;5.30;;
46607;SDS011;32330;51.936;7.184;2023-03-21T15:39:22;7.13;;;4.90;;
46607;SDS011;32330;51.936;7.184;2023-03-21T15:42:03;10.82;;;4.88;;
46607;SDS011;32330;51.936;7.184;2023-03-21T15:44:33;7.00;;;5.13;;
46607;SDS011;32330;51.936;7.184;2023-03-21T15:47:00;7.38;;;4.40;;
46607;SDS011;32330;51.936;7.184;2023-03-21T15:49:28;6.32;;;4.50;;
46607;SDS011;32330;51.936;7.184;2023-03-21T15:51:57;8.00;;;4.88;;
46607;SDS011;32330;51.936;7.184;2023-03-21T15:54:28;7.43;;;4.60;;
46607;SDS011;32330;51.936;7.184;2023-03-21T15:56:57;10.70;;;6.18;;
46607;SDS011;32330;51.936;7.184;2023-03-21T15:59:30;7.38;;;3.95;;
46607;SDS011;32330;51.936;7.184;2023-03-21T16:02:00;8.25;;;4.65;;
46607;SDS011;32330;51.936;7.184;2023-03-21T16:04:28;8.10;;;4.95;;
46607;SDS011;32330;51.936;7.184;2023-03-21T16:06:56;9.00;;;4.53;;
46607;SDS011;32330;51.936;7.184;2023-03-21T16:09:40;6.13;;;4.28;;
46607;SDS011;32330;51.936;7.184;2023-03-21T16:12:09;6.68;;;4.47;;
46607;SDS011;32330;51.936;7.184;2023-03-21T16:14:39;9.20;;;4.35;;
46607;SDS011;32330;51.936;7.184;2023-03-21T16:17:16;8.57;;;4.90;;
46607;SDS011;32330;51.936;7.184;2023-03-21T16:19:51;7.90;;;5.20;;
46607;SDS011;32330;51.936;7.184;2023-03-21T16:22:18;5.68;;;4.38;;
46607;SDS011;32330;51.936;7.184;2023-03-21T16:24:46;6.25;;;4.35;;
46607;SDS011;32330;51.936;7.184;2023-03-21T16:27:13;6.88;;;4.85;;
46607;SDS011;32330;51.936;7.184;2023-03-21T16:29:43;7.68;;;4.70;;
46607;SDS011;32330;51.936;7.184;2023-03-21T16:32:11;8.43;;;6.60;;
46607;SDS011;32330;51.936;7.184;2023-03-21T16:34:41;7.30;;;5.03;;
46607;SDS011;32330;51.936;7.184;2023-03-21T16:37:09;6.45;;;4.35;;
46607;SDS011;32330;51.936;7.184;2023-03-21T16:39:36;6.32;;;4.55;;
46607;SDS011;32330;51.936;7.184;2023-03-21T16:42:03;4.85;;;4.30;;
46607;SDS011;32330;51.936;7.184;2023-03-21T16:44:31;7.05;;;4.75;;
46607;SDS011;32330;51.936;7.184;2023-03-21T16:47:01;7.45;;;4.65;;
46607;SDS011;32330;51.936;7.184;2023-03-21T16:49:28;10.10;;;4.43;;
46607;SDS011;32330;51.936;7.184;2023-03-21T16:51:55;7.60;;;5.88;;
46607;SDS011;32330;51.936;7.184;2023-03-21T16:54:22;6.82;;;4.93;;
46607;SDS011;32330;51.936;7.184;2023-03-21T16:56:50;7.18;;;5.07;;
46607;SDS011;32330;51.936;7.184;2023-03-21T16:59:19;10.27;;;5.35;;
46607;SDS011;32330;51.936;7.184;2023-03-21T17:01:46;5.95;;;5.00;;
46607;SDS011;32330;51.936;7.184;2023-03-21T17:04:15;8.90;;;4.80;;
46607;SDS011;32330;51.936;7.184;2023-03-21T17:06:44;8.27;;;5.10;;
46607;SDS011;32330;51.936;7.184;2023-03-21T17:09:14;5.80;;;4.45;;
46607;SDS011;32330;51.936;7.184;2023-03-21T17:11:42;7.88;;;5.70;;
46607;SDS011;32330;51.936;7.184;2023-03-21T17:14:09;7.30;;;5.80;;
46607;SDS011;32330;51.936;7.184;2023-03-21T17:16:41;6.38;;;4.40;;
46607;SDS011;32330;51.936;7.184;2023-03-21T17:19:10;7.63;;;4.88;;
46607;SDS011;32330;51.936;7.184;2023-03-21T17:21:40;7.40;;;4.80;;
46607;SDS011;32330;51.936;7.184;2023-03-21T17:24:07;5.90;;;4.60;;
46607;SDS011;32330;51.936;7.184;2023-03-21T17:26:35;10.90;;;5.10;;
46607;SDS011;32330;51.936;7.184;2023-03-21T17:29:02;6.40;;;5.00;;
46607;SDS011;32330;51.936;7.184;2023-03-21T17:31:31;7.90;;;5.00;;
46607;SDS011;32330;51.936;7.184;2023-03-21T17:33:59;9.60;;;7.73;;
46607;SDS011;32330;51.936;7.184;2023-03-21T17:36:33;9.70;;;7.60;;
46607;SDS011;32330;51.936;7.184;2023-03-21T17:39:05;10.32;;;6.28;;
46607;SDS011;32330;51.936;7.184;2023-03-21T17:41:33;10.82;;;8.40;;
46607;SDS011;32330;51.936;7.184;2023-03-21T17:44:01;7.75;;;6.40;;
46607;SDS011;32330;51.936;7.184;2023-03-21T17:46:28;8.32;;;5.25;;
46607;SDS011;32330;51.936;7.184;2023-03-21T17:48:59;7.97;;;5.28;;
46607;SDS011;32330;51.936;7.184;2023-03-21T17:51:26;7.70;;;5.47;;
46607;SDS011;32330;51.936;7.184;2023-03-21T17:53:58;9.25;;;5.78;;
46607;SDS011;32330;51.936;7.184;2023-03-21T17:57:02;10.95;;;6.70;;
46607;SDS011;32330;51.936;7.184;2023-03-21T17:59:29;7.70;;;5.97;;
46607;SDS011;32330;51.936;7.184;2023-03-21T18:01:56;7.25;;;5.57;;
46607;SDS011;32330;51.936;7.184;2023-03-21T18:04:23;10.80;;;9.63;;
46607;SDS011;32330;51.936;7.184;2023-03-21T18:06:51;7.22;;;5.93;;
46607;SDS011;32330;51.936;7.184;2023-03-21T18:09:23;6.82;;;5.50;;
46607;SDS011;32330;51.936;7.184;2023-03-21T18:11:50;8.18;;;5.43;;
46607;SDS011;32330;51.936;7.184;2023-03-21T18:14:18;8.75;;;6.38;;
46607;SDS011;32330;51.936;7.184;2023-03-21T18:16:46;11.80;;;6.78;;
46607;SDS011;32330;51.936;7.184;2023-03-21T18:19:14;8.48;;;5.75;;
46607;SDS011;32330;51.936;7.184;2023-03-21T18:21:41;8.65;;;6.05;;
46607;SDS011;32330;51.936;7.184;2023-03-21T18:24:08;7.70;;;5.50;;
46607;SDS011;32330;51.936;7.184;2023-03-21T18:26:35;10.68;;;6.22;;
46607;SDS011;32330;51.936;7.184;2023-03-21T18:29:02;9.25;;;5.93;;
46607;SDS011;32330;51.936;7.184;2023-03-21T18:31:31;7.60;;;5.85;;
46607;SDS011;32330;51.936;7.184;2023-03-21T18:33:58;8.07;;;5.75;;
46607;SDS011;32330;51.936;7.184;2023-03-21T18:36:25;11.10;;;5.88;;
46607;SDS011;32330;51.936;7.184;2023-03-21T18:38:52;6.93;;;5.68;;
46607;SDS011;32330;51.936;7.184;2023-03-21T18:41:20;9.23;;;8.30;;
46607;SDS011;32330;51.936;7.184;2023-03-21T18:43:47;9.23;;;5.80;;
46607;SDS011;32330;51.936;7.184;2023-03-21T18:46:14;9.88;;;6.18;;
46607;SDS011;32330;51.936;7.184;2023-03-21T18:48:43;10.68;;;7.00;;
46607;SDS011;32330;51.936;7.184;2023-03-21T18:51:10;11.13;;;8.68;;
46607;SDS011;32330;51.936;7.184;2023-03-21T18:53:37;8.60;;;6.20;;
46607;SDS011;32330;51.936;7.184;2023-03-21T18:56:04;9.95;;;6.50;;
46607;SDS011;32330;51.936;7.184;2023-03-21T18:58:32;9.05;;;6.53;;
46607;SDS011;32330;51.936;7.184;2023-03-21T19:00:59;9.30;;;5.85;;
46607;SDS011;32330;51.936;7.184;2023-03-21T19:03:26;9.20;;;6.78;;
46607;SDS011;32330;51.936;7.184;2023-03-21T19:05:57;10.43;;;6.95;;
46607;SDS011;32330;51.936;7.184;2023-03-21T19:08:25;9.13;;;6.13;;
46607;SDS011;32330;51.936;7.184;2023-03-21T19:10:52;9.18;;;6.72;;
46607;SDS011;32330;51.936;7.184;2023-03-21T19:13:19;11.68;;;7.50;;
46607;SDS011;32330;51.936;7.184;2023-03-21T19:15:46;10.80;;;7.20;;
46607;SDS011;32330;51.936;7.184;2023-03-21T19:18:13;10.90;;;7.22;;
46607;SDS011;32330;51.936;7.184;2023-03-21T19:20:41;9.75;;;7.93;;
46607;SDS011;32330;51.936;7.184;2023-03-21T19:23:10;10.75;;;8.23;;
46607;SDS011;32330;51.936;7.184;2023-03-21T19:25:37;12.88;;;7.85;;
46607;SDS011;32330;51.936;7.184;2023-03-21T19:28:04;11.32;;;7.82;;
46607;SDS011;32330;51.936;7.184;2023-03-21T19:30:31;10.48;;;8.50;;
46607;SDS011;32330;51.936;7.184;2023-03-21T19:32:58;11.05;;;8.75;;
46607;SDS011;32330;51.936;7.184;2023-03-21T19:35:25;13.30;;;9.68;;
46607;SDS011;32330;51.936;7.184;2023-03-21T19:37:52;11.65;;;7.05;;
46607;SDS011;32330;51.936;7.184;2023-03-21T19:40:21;12.38;;;7.57;;
46607;SDS011;32330;51.936;7.184;2023-03-21T19:42:48;11.93;;;7.50;;
46607;SDS011;32330;51.936;7.184;2023-03-21T19:45:15;10.40;;;7.57;;
46607;SDS011;32330;51.936;7.184;2023-03-21T19:47:42;10.60;;;7.72;;
46607;SDS011;32330;51.936;7.184;2023-03-21T19:50:09;11.60;;;8.32;;
46607;SDS011;32330;51.936;7.184;2023-03-21T19:52:36;13.38;;;9.13;;
46607;SDS011;32330;51.936;7.184;2023-03-21T19:55:03;11.10;;;7.57;;
46607;SDS011;32330;51.936;7.184;2023-03-21T19:57:32;13.60;;;8.10;;
46607;SDS011;32330;51.936;7.184;2023-03-21T19:59:59;9.80;;;7.20;;
46607;SDS011;32330;51.936;7.184;2023-03-21T20:02:26;9.57;;;7.93;;